sensor_id;sensor_type;location;lat;lon;timestamp;P1;durP1;ratioP1;P2;durP2;ratioP2
6755;SDS011;3415;51.148;7.014;2022-11-04T00:01:18;1.60;;;1.20;;
6755;SDS011;3415;51.148;7.014;2022-11-04T00:03:46;2.93;;;1.23;;
6755;SDS011;3415;51.148;7.014;2022-11-04T00:06:13;1.87;;;1.10;;
6755;SDS011;3415;51.148;7.014;2022-11-04T00:08:40;2.10;;;1.33;;
6755;SDS011;3415;51.148;7.014;2022-11-04T00:11:08;1.90;;;1.13;;
6755;SDS011;3415;51.148;7.014;2022-11-04T00:13:53;1.70;;;1.20;;
6755;SDS011;3415;51.148;7.014;2022-11-04T00:16:20;1.83;;;1.20;;
6755;SDS011;3415;51.148;7.014;2022-11-04T00:19:05;2.10;;;1.50;;
6755;SDS011;3415;51.148;7.014;2022-11-04T00:21:32;2.57;;;1.50;;
6755;SDS011;3415;51.148;7.014;2022-11-04T00:24:16;2.83;;;1.47;;
6755;SDS011;3415;51.148;7.014;2022-11-04T00:27:00;3.90;;;1.50;;
6755;SDS011;3415;51.148;7.014;2022-11-04T00:29:45;2.80;;;1.53;;
6755;SDS011;3415;51.148;7.014;2022-11-04T00:32:12;3.37;;;1.80;;
6755;SDS011;3415;51.148;7.014;2022-11-04T00:34:57;2.37;;;1.30;;
6755;SDS011;3415;51.148;7.014;2022-11-04T00:37:25;3.63;;;1.67;;
6755;SDS011;3415;51.148;7.014;2022-11-04T00:39:51;2.77;;;1.60;;
6755;SDS011;3415;51.148;7.014;2022-11-04T00:42:18;2.50;;;1.60;;
6755;SDS011;3415;51.148;7.014;2022-11-04T00:44:45;2.17;;;1.40;;
6755;SDS011;3415;51.148;7.014;2022-11-04T00:47:12;2.00;;;1.30;;
6755;SDS011;3415;51.148;7.014;2022-11-04T00:49:39;2.60;;;1.73;;
6755;SDS011;3415;51.148;7.014;2022-11-04T00:52:07;1.90;;;1.50;;
6755;SDS011;3415;51.148;7.014;2022-11-04T00:54:33;3.30;;;1.90;;
6755;SDS011;3415;51.148;7.014;2022-11-04T00:57:00;2.50;;;1.67;;
6755;SDS011;3415;51.148;7.014;2022-11-04T00:59:27;3.30;;;1.70;;
6755;SDS011;3415;51.148;7.014;2022-11-04T01:01:54;3.80;;;1.60;;
6755;SDS011;3415;51.148;7.014;2022-11-04T01:04:21;2.20;;;1.50;;
6755;SDS011;3415;51.148;7.014;2022-11-04T01:06:48;3.97;;;2.30;;
6755;SDS011;3415;51.148;7.014;2022-11-04T01:09:16;1.93;;;1.50;;
6755;SDS011;3415;51.148;7.014;2022-11-04T01:11:43;2.20;;;1.60;;
6755;SDS011;3415;51.148;7.014;2022-11-04T01:14:10;5.73;;;2.20;;
6755;SDS011;3415;51.148;7.014;2022-11-04T01:16:37;2.50;;;1.70;;
6755;SDS011;3415;51.148;7.014;2022-11-04T01:19:05;3.63;;;1.80;;
6755;SDS011;3415;51.148;7.014;2022-11-04T01:21:32;2.20;;;1.50;;
6755;SDS011;3415;51.148;7.014;2022-11-04T01:23:59;4.30;;;2.27;;
6755;SDS011;3415;51.148;7.014;2022-11-04T01:26:27;5.30;;;2.27;;
6755;SDS011;3415;51.148;7.014;2022-11-04T01:28:56;3.00;;;1.90;;
6755;SDS011;3415;51.148;7.014;2022-11-04T01:31:24;2.37;;;1.53;;
6755;SDS011;3415;51.148;7.014;2022-11-04T01:33:53;1.77;;;1.50;;
6755;SDS011;3415;51.148;7.014;2022-11-04T01:36:20;3.17;;;2.07;;
6755;SDS011;3415;51.148;7.014;2022-11-04T01:38:47;1.53;;;1.23;;
6755;SDS011;3415;51.148;7.014;2022-11-04T01:41:16;2.30;;;1.60;;
6755;SDS011;3415;51.148;7.014;2022-11-04T01:43:49;2.70;;;1.90;;
6755;SDS011;3415;51.148;7.014;2022-11-04T01:46:22;6.27;;;1.77;;
6755;SDS011;3415;51.148;7.014;2022-11-04T01:48:55;2.97;;;1.77;;
6755;SDS011;3415;51.148;7.014;2022-11-04T01:51:27;2.57;;;1.60;;
6755;SDS011;3415;51.148;7.014;2022-11-04T01:53:57;4.90;;;1.60;;
6755;SDS011;3415;51.148;7.014;2022-11-04T01:56:25;2.73;;;1.83;;
6755;SDS011;3415;51.148;7.014;2022-11-04T01:58:54;3.50;;;1.90;;
6755;SDS011;3415;51.148;7.014;2022-11-04T02:01:25;3.40;;;1.73;;
6755;SDS011;3415;51.148;7.014;2022-11-04T02:03:53;5.60;;;1.73;;
6755;SDS011;3415;51.148;7.014;2022-11-04T02:06:44;2.77;;;1.73;;
6755;SDS011;3415;51.148;7.014;2022-11-04T02:09:12;3.90;;;1.57;;
6755;SDS011;3415;51.148;7.014;2022-11-04T02:11:39;2.83;;;1.43;;
6755;SDS011;3415;51.148;7.014;2022-11-04T02:14:25;2.10;;;1.30;;
6755;SDS011;3415;51.148;7.014;2022-11-04T02:16:52;3.60;;;1.67;;
6755;SDS011;3415;51.148;7.014;2022-11-04T02:19:30;2.40;;;1.17;;
6755;SDS011;3415;51.148;7.014;2022-11-04T02:22:24;2.90;;;1.57;;
6755;SDS011;3415;51.148;7.014;2022-11-04T02:28:11;1.80;;;1.30;;
6755;SDS011;3415;51.148;7.014;2022-11-04T02:30:55;1.83;;;1.20;;
6755;SDS011;3415;51.148;7.014;2022-11-04T02:33:27;4.40;;;1.70;;
6755;SDS011;3415;51.148;7.014;2022-11-04T02:36:01;6.60;;;1.90;;
6755;SDS011;3415;51.148;7.014;2022-11-04T02:38:32;6.40;;;1.83;;
6755;SDS011;3415;51.148;7.014;2022-11-04T02:41:06;2.73;;;1.37;;
6755;SDS011;3415;51.148;7.014;2022-11-04T02:43:43;5.23;;;1.50;;
6755;SDS011;3415;51.148;7.014;2022-11-04T02:46:16;3.50;;;1.67;;
6755;SDS011;3415;51.148;7.014;2022-11-04T02:48:48;3.10;;;1.37;;
6755;SDS011;3415;51.148;7.014;2022-11-04T02:51:24;2.20;;;1.00;;
6755;SDS011;3415;51.148;7.014;2022-11-04T02:53:56;3.30;;;1.30;;
6755;SDS011;3415;51.148;7.014;2022-11-04T02:56:26;11.13;;;1.40;;
6755;SDS011;3415;51.148;7.014;2022-11-04T02:58:56;1.80;;;1.20;;
6755;SDS011;3415;51.148;7.014;2022-11-04T03:01:28;2.63;;;0.90;;
6755;SDS011;3415;51.148;7.014;2022-11-04T03:04:00;2.50;;;1.00;;
6755;SDS011;3415;51.148;7.014;2022-11-04T03:06:31;1.63;;;1.20;;
6755;SDS011;3415;51.148;7.014;2022-11-04T03:09:01;3.67;;;1.03;;
6755;SDS011;3415;51.148;7.014;2022-11-04T03:11:29;4.07;;;1.03;;
6755;SDS011;3415;51.148;7.014;2022-11-04T03:13:58;3.50;;;1.10;;
6755;SDS011;3415;51.148;7.014;2022-11-04T03:16:31;4.10;;;1.53;;
6755;SDS011;3415;51.148;7.014;2022-11-04T03:19:04;1.40;;;0.90;;
6755;SDS011;3415;51.148;7.014;2022-11-04T03:21:39;8.00;;;1.10;;
6755;SDS011;3415;51.148;7.014;2022-11-04T03:24:12;3.70;;;1.20;;
6755;SDS011;3415;51.148;7.014;2022-11-04T03:26:40;1.60;;;0.90;;
6755;SDS011;3415;51.148;7.014;2022-11-04T03:29:17;2.37;;;1.00;;
6755;SDS011;3415;51.148;7.014;2022-11-04T03:31:54;4.30;;;1.37;;
6755;SDS011;3415;51.148;7.014;2022-11-04T03:34:29;2.90;;;1.00;;
6755;SDS011;3415;51.148;7.014;2022-11-04T03:36:57;3.80;;;1.13;;
6755;SDS011;3415;51.148;7.014;2022-11-04T03:39:24;3.93;;;1.10;;
6755;SDS011;3415;51.148;7.014;2022-11-04T03:41:51;10.83;;;1.10;;
6755;SDS011;3415;51.148;7.014;2022-11-04T03:44:20;3.63;;;1.10;;
6755;SDS011;3415;51.148;7.014;2022-11-04T03:46:48;4.30;;;1.70;;
6755;SDS011;3415;51.148;7.014;2022-11-04T03:49:18;3.70;;;1.70;;
6755;SDS011;3415;51.148;7.014;2022-11-04T03:51:46;2.70;;;1.00;;
6755;SDS011;3415;51.148;7.014;2022-11-04T03:54:13;4.37;;;1.40;;
6755;SDS011;3415;51.148;7.014;2022-11-04T03:59:42;8.03;;;1.27;;
6755;SDS011;3415;51.148;7.014;2022-11-04T04:02:25;1.90;;;0.90;;
6755;SDS011;3415;51.148;7.014;2022-11-04T04:05:02;5.13;;;1.00;;
6755;SDS011;3415;51.148;7.014;2022-11-04T04:07:37;5.23;;;1.47;;
6755;SDS011;3415;51.148;7.014;2022-11-04T04:10:11;2.40;;;1.17;;
6755;SDS011;3415;51.148;7.014;2022-11-04T04:12:59;2.30;;;1.20;;
6755;SDS011;3415;51.148;7.014;2022-11-04T04:15:33;5.77;;;1.70;;
6755;SDS011;3415;51.148;7.014;2022-11-04T04:18:06;2.93;;;1.40;;
6755;SDS011;3415;51.148;7.014;2022-11-04T04:20:39;1.60;;;1.13;;
6755;SDS011;3415;51.148;7.014;2022-11-04T04:23:12;7.03;;;1.20;;
6755;SDS011;3415;51.148;7.014;2022-11-04T04:26:01;7.90;;;1.53;;
6755;SDS011;3415;51.148;7.014;2022-11-04T04:28:47;3.90;;;1.70;;
6755;SDS011;3415;51.148;7.014;2022-11-04T04:31:17;7.37;;;1.40;;
6755;SDS011;3415;51.148;7.014;2022-11-04T04:33:59;7.10;;;1.90;;
6755;SDS011;3415;51.148;7.014;2022-11-04T04:36:27;3.53;;;1.10;;
6755;SDS011;3415;51.148;7.014;2022-11-04T04:38:56;2.30;;;1.20;;
6755;SDS011;3415;51.148;7.014;2022-11-04T04:41:42;2.27;;;1.13;;
6755;SDS011;3415;51.148;7.014;2022-11-04T04:44:26;3.43;;;1.20;;
6755;SDS011;3415;51.148;7.014;2022-11-04T04:47:13;3.53;;;1.40;;
6755;SDS011;3415;51.148;7.014;2022-11-04T04:49:50;6.27;;;1.60;;
6755;SDS011;3415;51.148;7.014;2022-11-04T04:52:19;4.70;;;1.40;;
6755;SDS011;3415;51.148;7.014;2022-11-04T04:54:47;5.53;;;1.40;;
6755;SDS011;3415;51.148;7.014;2022-11-04T04:57:14;9.53;;;2.53;;
6755;SDS011;3415;51.148;7.014;2022-11-04T04:59:41;5.77;;;1.87;;
6755;SDS011;3415;51.148;7.014;2022-11-04T05:02:07;4.60;;;1.60;;
6755;SDS011;3415;51.148;7.014;2022-11-04T05:04:34;2.63;;;1.43;;
6755;SDS011;3415;51.148;7.014;2022-11-04T05:07:01;5.00;;;1.70;;
6755;SDS011;3415;51.148;7.014;2022-11-04T05:09:29;5.00;;;1.50;;
6755;SDS011;3415;51.148;7.014;2022-11-04T05:11:56;5.10;;;1.43;;
6755;SDS011;3415;51.148;7.014;2022-11-04T05:14:23;7.33;;;1.83;;
6755;SDS011;3415;51.148;7.014;2022-11-04T05:16:50;3.77;;;2.30;;
6755;SDS011;3415;51.148;7.014;2022-11-04T05:19:17;10.23;;;1.53;;
6755;SDS011;3415;51.148;7.014;2022-11-04T05:21:44;3.00;;;1.50;;
6755;SDS011;3415;51.148;7.014;2022-11-04T05:24:10;4.87;;;1.30;;
6755;SDS011;3415;51.148;7.014;2022-11-04T05:26:39;4.83;;;1.20;;
6755;SDS011;3415;51.148;7.014;2022-11-04T05:29:05;2.03;;;1.40;;
6755;SDS011;3415;51.148;7.014;2022-11-04T05:31:33;3.03;;;1.20;;
6755;SDS011;3415;51.148;7.014;2022-11-04T05:34:00;4.37;;;1.47;;
6755;SDS011;3415;51.148;7.014;2022-11-04T05:36:29;2.50;;;1.37;;
6755;SDS011;3415;51.148;7.014;2022-11-04T05:38:57;3.23;;;1.43;;
6755;SDS011;3415;51.148;7.014;2022-11-04T05:41:24;8.73;;;1.53;;
6755;SDS011;3415;51.148;7.014;2022-11-04T05:43:53;7.30;;;1.77;;
6755;SDS011;3415;51.148;7.014;2022-11-04T05:46:20;2.37;;;1.43;;
6755;SDS011;3415;51.148;7.014;2022-11-04T05:48:47;5.40;;;1.27;;
6755;SDS011;3415;51.148;7.014;2022-11-04T05:51:15;7.27;;;1.70;;
6755;SDS011;3415;51.148;7.014;2022-11-04T05:53:43;4.20;;;1.47;;
6755;SDS011;3415;51.148;7.014;2022-11-04T05:56:10;5.07;;;1.97;;
6755;SDS011;3415;51.148;7.014;2022-11-04T05:58:37;4.93;;;1.70;;
6755;SDS011;3415;51.148;7.014;2022-11-04T06:01:12;7.97;;;2.13;;
6755;SDS011;3415;51.148;7.014;2022-11-04T06:03:47;4.37;;;1.57;;
6755;SDS011;3415;51.148;7.014;2022-11-04T06:06:14;11.20;;;2.20;;
6755;SDS011;3415;51.148;7.014;2022-11-04T06:08:41;6.57;;;1.77;;
6755;SDS011;3415;51.148;7.014;2022-11-04T06:11:08;7.43;;;1.83;;
6755;SDS011;3415;51.148;7.014;2022-11-04T06:13:35;6.40;;;1.90;;
6755;SDS011;3415;51.148;7.014;2022-11-04T06:16:02;3.77;;;1.77;;
6755;SDS011;3415;51.148;7.014;2022-11-04T06:18:30;4.00;;;1.87;;
6755;SDS011;3415;51.148;7.014;2022-11-04T06:21:07;7.33;;;1.67;;
6755;SDS011;3415;51.148;7.014;2022-11-04T06:23:35;5.43;;;1.80;;
6755;SDS011;3415;51.148;7.014;2022-11-04T06:26:02;4.03;;;1.40;;
6755;SDS011;3415;51.148;7.014;2022-11-04T06:28:30;5.77;;;1.80;;
6755;SDS011;3415;51.148;7.014;2022-11-04T06:30:57;4.50;;;1.63;;
6755;SDS011;3415;51.148;7.014;2022-11-04T06:33:26;5.60;;;1.60;;
6755;SDS011;3415;51.148;7.014;2022-11-04T06:35:57;2.80;;;1.20;;
6755;SDS011;3415;51.148;7.014;2022-11-04T06:38:24;4.13;;;1.80;;
6755;SDS011;3415;51.148;7.014;2022-11-04T06:40:51;5.57;;;2.93;;
6755;SDS011;3415;51.148;7.014;2022-11-04T06:43:18;2.70;;;1.90;;
6755;SDS011;3415;51.148;7.014;2022-11-04T06:45:51;2.70;;;1.57;;
6755;SDS011;3415;51.148;7.014;2022-11-04T06:48:18;6.63;;;2.00;;
6755;SDS011;3415;51.148;7.014;2022-11-04T06:50:45;8.50;;;1.70;;
6755;SDS011;3415;51.148;7.014;2022-11-04T06:53:14;3.70;;;1.40;;
6755;SDS011;3415;51.148;7.014;2022-11-04T06:55:40;5.73;;;2.43;;
6755;SDS011;3415;51.148;7.014;2022-11-04T06:58:08;2.37;;;1.60;;
6755;SDS011;3415;51.148;7.014;2022-11-04T07:00:34;4.67;;;1.80;;
6755;SDS011;3415;51.148;7.014;2022-11-04T07:03:02;4.30;;;1.87;;
6755;SDS011;3415;51.148;7.014;2022-11-04T07:05:31;3.10;;;1.90;;
6755;SDS011;3415;51.148;7.014;2022-11-04T07:07:58;3.40;;;1.30;;
6755;SDS011;3415;51.148;7.014;2022-11-04T07:10:26;5.00;;;1.73;;
6755;SDS011;3415;51.148;7.014;2022-11-04T07:12:53;6.10;;;1.33;;
6755;SDS011;3415;51.148;7.014;2022-11-04T07:15:20;7.80;;;1.60;;
6755;SDS011;3415;51.148;7.014;2022-11-04T07:17:47;4.43;;;1.57;;
6755;SDS011;3415;51.148;7.014;2022-11-04T07:20:14;8.60;;;2.67;;
6755;SDS011;3415;51.148;7.014;2022-11-04T07:22:41;6.43;;;2.10;;
6755;SDS011;3415;51.148;7.014;2022-11-04T07:25:08;5.97;;;2.50;;
6755;SDS011;3415;51.148;7.014;2022-11-04T07:27:36;3.60;;;2.07;;
6755;SDS011;3415;51.148;7.014;2022-11-04T07:30:03;5.97;;;1.60;;
6755;SDS011;3415;51.148;7.014;2022-11-04T07:32:31;6.10;;;1.70;;
6755;SDS011;3415;51.148;7.014;2022-11-04T07:34:58;4.80;;;1.30;;
6755;SDS011;3415;51.148;7.014;2022-11-04T07:37:25;4.70;;;1.40;;
6755;SDS011;3415;51.148;7.014;2022-11-04T07:39:52;3.80;;;1.43;;
6755;SDS011;3415;51.148;7.014;2022-11-04T07:42:18;2.20;;;1.30;;
6755;SDS011;3415;51.148;7.014;2022-11-04T07:44:47;5.00;;;1.73;;
6755;SDS011;3415;51.148;7.014;2022-11-04T07:47:13;10.43;;;1.77;;
6755;SDS011;3415;51.148;7.014;2022-11-04T07:49:40;4.23;;;1.20;;
6755;SDS011;3415;51.148;7.014;2022-11-04T07:52:08;1.83;;;1.30;;
6755;SDS011;3415;51.148;7.014;2022-11-04T07:54:35;4.63;;;1.80;;
6755;SDS011;3415;51.148;7.014;2022-11-04T07:57:02;1.73;;;1.23;;
6755;SDS011;3415;51.148;7.014;2022-11-04T07:59:29;4.33;;;1.60;;
6755;SDS011;3415;51.148;7.014;2022-11-04T08:01:57;14.13;;;1.63;;
6755;SDS011;3415;51.148;7.014;2022-11-04T08:04:24;4.23;;;1.03;;
6755;SDS011;3415;51.148;7.014;2022-11-04T08:06:51;3.20;;;1.37;;
6755;SDS011;3415;51.148;7.014;2022-11-04T08:09:17;2.83;;;1.40;;
6755;SDS011;3415;51.148;7.014;2022-11-04T08:11:45;2.37;;;1.20;;
6755;SDS011;3415;51.148;7.014;2022-11-04T08:14:12;5.10;;;1.40;;
6755;SDS011;3415;51.148;7.014;2022-11-04T08:16:38;3.33;;;1.30;;
6755;SDS011;3415;51.148;7.014;2022-11-04T08:19:07;3.80;;;1.60;;
6755;SDS011;3415;51.148;7.014;2022-11-04T08:21:34;1.83;;;1.33;;
6755;SDS011;3415;51.148;7.014;2022-11-04T08:24:01;4.93;;;1.50;;
6755;SDS011;3415;51.148;7.014;2022-11-04T08:26:29;8.97;;;1.37;;
6755;SDS011;3415;51.148;7.014;2022-11-04T08:28:56;8.57;;;1.60;;
6755;SDS011;3415;51.148;7.014;2022-11-04T08:31:23;4.77;;;1.10;;
6755;SDS011;3415;51.148;7.014;2022-11-04T08:33:52;2.30;;;1.17;;
6755;SDS011;3415;51.148;7.014;2022-11-04T08:36:22;2.30;;;1.10;;
6755;SDS011;3415;51.148;7.014;2022-11-04T08:38:50;9.63;;;1.90;;
6755;SDS011;3415;51.148;7.014;2022-11-04T08:41:23;6.03;;;1.63;;
6755;SDS011;3415;51.148;7.014;2022-11-04T08:43:52;7.40;;;1.67;;
6755;SDS011;3415;51.148;7.014;2022-11-04T08:46:18;6.73;;;1.40;;
6755;SDS011;3415;51.148;7.014;2022-11-04T08:48:45;2.30;;;1.20;;
6755;SDS011;3415;51.148;7.014;2022-11-04T08:51:14;4.73;;;1.40;;
6755;SDS011;3415;51.148;7.014;2022-11-04T08:53:44;2.87;;;1.60;;
6755;SDS011;3415;51.148;7.014;2022-11-04T08:56:12;5.17;;;1.47;;
6755;SDS011;3415;51.148;7.014;2022-11-04T08:58:41;5.90;;;1.33;;
6755;SDS011;3415;51.148;7.014;2022-11-04T09:01:08;3.30;;;1.43;;
6755;SDS011;3415;51.148;7.014;2022-11-04T09:03:36;6.40;;;1.60;;
6755;SDS011;3415;51.148;7.014;2022-11-04T09:06:04;14.17;;;1.60;;
6755;SDS011;3415;51.148;7.014;2022-11-04T09:08:31;3.00;;;1.60;;
6755;SDS011;3415;51.148;7.014;2022-11-04T09:10:59;3.97;;;1.73;;
6755;SDS011;3415;51.148;7.014;2022-11-04T09:13:26;5.33;;;1.90;;
6755;SDS011;3415;51.148;7.014;2022-11-04T09:15:53;2.40;;;1.23;;
6755;SDS011;3415;51.148;7.014;2022-11-04T09:18:20;4.53;;;1.40;;
6755;SDS011;3415;51.148;7.014;2022-11-04T09:20:46;3.30;;;1.30;;
6755;SDS011;3415;51.148;7.014;2022-11-04T09:23:13;3.37;;;1.60;;
6755;SDS011;3415;51.148;7.014;2022-11-04T09:25:40;2.70;;;1.40;;
6755;SDS011;3415;51.148;7.014;2022-11-04T09:28:08;3.90;;;1.20;;
6755;SDS011;3415;51.148;7.014;2022-11-04T09:30:35;3.00;;;1.30;;
6755;SDS011;3415;51.148;7.014;2022-11-04T09:33:02;3.83;;;1.40;;
6755;SDS011;3415;51.148;7.014;2022-11-04T09:35:29;3.40;;;1.60;;
6755;SDS011;3415;51.148;7.014;2022-11-04T09:37:58;4.23;;;1.70;;
6755;SDS011;3415;51.148;7.014;2022-11-04T09:40:26;4.27;;;1.63;;
6755;SDS011;3415;51.148;7.014;2022-11-04T09:42:59;3.57;;;1.63;;
6755;SDS011;3415;51.148;7.014;2022-11-04T09:45:37;3.20;;;1.30;;
6755;SDS011;3415;51.148;7.014;2022-11-04T09:48:07;3.83;;;1.50;;
6755;SDS011;3415;51.148;7.014;2022-11-04T09:50:40;6.40;;;1.30;;
6755;SDS011;3415;51.148;7.014;2022-11-04T09:53:13;1.70;;;1.00;;
6755;SDS011;3415;51.148;7.014;2022-11-04T09:55:45;3.97;;;1.20;;
6755;SDS011;3415;51.148;7.014;2022-11-04T09:58:16;5.47;;;1.70;;
6755;SDS011;3415;51.148;7.014;2022-11-04T10:00:46;5.87;;;1.80;;
6755;SDS011;3415;51.148;7.014;2022-11-04T10:03:25;4.90;;;1.33;;
6755;SDS011;3415;51.148;7.014;2022-11-04T10:06:16;5.80;;;1.40;;
6755;SDS011;3415;51.148;7.014;2022-11-04T10:09:03;5.73;;;1.60;;
6755;SDS011;3415;51.148;7.014;2022-11-04T10:11:43;4.27;;;1.73;;
6755;SDS011;3415;51.148;7.014;2022-11-04T10:14:21;8.20;;;1.50;;
6755;SDS011;3415;51.148;7.014;2022-11-04T10:17:01;9.80;;;1.63;;
6755;SDS011;3415;51.148;7.014;2022-11-04T10:19:45;7.30;;;2.10;;
6755;SDS011;3415;51.148;7.014;2022-11-04T10:22:21;2.40;;;1.50;;
6755;SDS011;3415;51.148;7.014;2022-11-04T10:24:57;5.87;;;1.60;;
6755;SDS011;3415;51.148;7.014;2022-11-04T10:27:31;4.87;;;1.43;;
6755;SDS011;3415;51.148;7.014;2022-11-04T10:30:01;6.63;;;1.70;;
6755;SDS011;3415;51.148;7.014;2022-11-04T10:32:35;4.03;;;2.00;;
6755;SDS011;3415;51.148;7.014;2022-11-04T10:35:09;3.30;;;1.50;;
6755;SDS011;3415;51.148;7.014;2022-11-04T10:37:44;5.43;;;1.60;;
6755;SDS011;3415;51.148;7.014;2022-11-04T10:40:15;8.63;;;1.57;;
6755;SDS011;3415;51.148;7.014;2022-11-04T10:42:46;10.13;;;1.97;;
6755;SDS011;3415;51.148;7.014;2022-11-04T10:45:15;2.47;;;1.43;;
6755;SDS011;3415;51.148;7.014;2022-11-04T10:47:48;2.77;;;1.30;;
6755;SDS011;3415;51.148;7.014;2022-11-04T10:50:29;6.63;;;1.97;;
6755;SDS011;3415;51.148;7.014;2022-11-04T10:53:09;3.03;;;1.60;;
6755;SDS011;3415;51.148;7.014;2022-11-04T10:55:40;3.63;;;1.50;;
6755;SDS011;3415;51.148;7.014;2022-11-04T10:58:13;3.77;;;1.73;;
6755;SDS011;3415;51.148;7.014;2022-11-04T11:00:44;2.23;;;1.43;;
6755;SDS011;3415;51.148;7.014;2022-11-04T11:03:22;3.67;;;1.60;;
6755;SDS011;3415;51.148;7.014;2022-11-04T11:05:51;3.80;;;1.50;;
6755;SDS011;3415;51.148;7.014;2022-11-04T11:08:27;3.27;;;1.70;;
6755;SDS011;3415;51.148;7.014;2022-11-04T11:10:55;2.80;;;1.37;;
6755;SDS011;3415;51.148;7.014;2022-11-04T11:13:23;6.00;;;1.73;;
6755;SDS011;3415;51.148;7.014;2022-11-04T11:15:55;2.30;;;1.33;;
6755;SDS011;3415;51.148;7.014;2022-11-04T11:18:32;4.20;;;1.50;;
6755;SDS011;3415;51.148;7.014;2022-11-04T11:23:47;3.73;;;1.80;;
6755;SDS011;3415;51.148;7.014;2022-11-04T11:26:18;3.47;;;1.47;;
6755;SDS011;3415;51.148;7.014;2022-11-04T11:28:47;5.03;;;2.00;;
6755;SDS011;3415;51.148;7.014;2022-11-04T11:31:16;6.20;;;1.60;;
6755;SDS011;3415;51.148;7.014;2022-11-04T11:33:52;6.97;;;1.83;;
6755;SDS011;3415;51.148;7.014;2022-11-04T11:36:22;5.10;;;1.40;;
6755;SDS011;3415;51.148;7.014;2022-11-04T11:38:54;3.07;;;1.63;;
6755;SDS011;3415;51.148;7.014;2022-11-04T11:41:25;3.30;;;1.47;;
6755;SDS011;3415;51.148;7.014;2022-11-04T11:44:00;3.67;;;2.20;;
6755;SDS011;3415;51.148;7.014;2022-11-04T11:46:30;2.03;;;1.33;;
6755;SDS011;3415;51.148;7.014;2022-11-04T11:49:01;5.60;;;1.70;;
6755;SDS011;3415;51.148;7.014;2022-11-04T11:51:30;5.20;;;1.70;;
6755;SDS011;3415;51.148;7.014;2022-11-04T11:56:54;4.03;;;1.47;;
6755;SDS011;3415;51.148;7.014;2022-11-04T11:59:24;4.47;;;1.60;;
6755;SDS011;3415;51.148;7.014;2022-11-04T12:02:00;3.50;;;1.50;;
6755;SDS011;3415;51.148;7.014;2022-11-04T12:04:42;4.07;;;1.47;;
6755;SDS011;3415;51.148;7.014;2022-11-04T12:07:11;4.07;;;2.37;;
6755;SDS011;3415;51.148;7.014;2022-11-04T12:09:48;4.20;;;1.90;;
6755;SDS011;3415;51.148;7.014;2022-11-04T12:12:27;4.90;;;1.53;;
6755;SDS011;3415;51.148;7.014;2022-11-04T12:15:15;7.40;;;2.10;;
6755;SDS011;3415;51.148;7.014;2022-11-04T12:17:57;3.37;;;1.60;;
6755;SDS011;3415;51.148;7.014;2022-11-04T12:20:45;4.37;;;1.40;;
6755;SDS011;3415;51.148;7.014;2022-11-04T12:23:19;4.83;;;1.97;;
6755;SDS011;3415;51.148;7.014;2022-11-04T12:25:57;3.43;;;1.90;;
6755;SDS011;3415;51.148;7.014;2022-11-04T12:28:33;4.57;;;2.23;;
6755;SDS011;3415;51.148;7.014;2022-11-04T12:31:11;4.90;;;2.40;;
6755;SDS011;3415;51.148;7.014;2022-11-04T12:33:48;4.53;;;1.90;;
6755;SDS011;3415;51.148;7.014;2022-11-04T12:36:30;3.93;;;1.83;;
6755;SDS011;3415;51.148;7.014;2022-11-04T12:39:10;4.40;;;2.00;;
6755;SDS011;3415;51.148;7.014;2022-11-04T12:41:47;5.70;;;2.73;;
6755;SDS011;3415;51.148;7.014;2022-11-04T12:44:23;13.47;;;2.10;;
6755;SDS011;3415;51.148;7.014;2022-11-04T12:46:59;3.57;;;2.20;;
6755;SDS011;3415;51.148;7.014;2022-11-04T12:49:41;4.80;;;1.87;;
6755;SDS011;3415;51.148;7.014;2022-11-04T12:52:24;2.70;;;2.00;;
6755;SDS011;3415;51.148;7.014;2022-11-04T12:55:05;2.77;;;1.80;;
6755;SDS011;3415;51.148;7.014;2022-11-04T12:57:45;4.60;;;1.63;;
6755;SDS011;3415;51.148;7.014;2022-11-04T13:00:20;6.37;;;1.87;;
6755;SDS011;3415;51.148;7.014;2022-11-04T13:02:50;4.80;;;2.57;;
6755;SDS011;3415;51.148;7.014;2022-11-04T13:05:27;4.87;;;1.90;;
6755;SDS011;3415;51.148;7.014;2022-11-04T13:08:04;7.50;;;2.23;;
6755;SDS011;3415;51.148;7.014;2022-11-04T13:10:38;4.07;;;1.73;;
6755;SDS011;3415;51.148;7.014;2022-11-04T13:13:07;4.70;;;1.70;;
6755;SDS011;3415;51.148;7.014;2022-11-04T13:15:39;8.07;;;1.67;;
6755;SDS011;3415;51.148;7.014;2022-11-04T13:18:12;5.73;;;1.70;;
6755;SDS011;3415;51.148;7.014;2022-11-04T13:20:44;7.40;;;1.70;;
6755;SDS011;3415;51.148;7.014;2022-11-04T13:23:19;2.70;;;1.90;;
6755;SDS011;3415;51.148;7.014;2022-11-04T13:25:51;4.80;;;1.67;;
6755;SDS011;3415;51.148;7.014;2022-11-04T13:28:19;4.00;;;1.93;;
6755;SDS011;3415;51.148;7.014;2022-11-04T13:30:49;5.97;;;2.00;;
6755;SDS011;3415;51.148;7.014;2022-11-04T13:33:22;3.23;;;1.33;;
6755;SDS011;3415;51.148;7.014;2022-11-04T13:35:56;8.13;;;2.20;;
6755;SDS011;3415;51.148;7.014;2022-11-04T13:38:29;2.93;;;1.50;;
6755;SDS011;3415;51.148;7.014;2022-11-04T13:41:09;4.43;;;1.23;;
6755;SDS011;3415;51.148;7.014;2022-11-04T13:43:53;6.93;;;2.17;;
6755;SDS011;3415;51.148;7.014;2022-11-04T13:46:24;4.47;;;2.03;;
6755;SDS011;3415;51.148;7.014;2022-11-04T13:48:59;10.10;;;2.27;;
6755;SDS011;3415;51.148;7.014;2022-11-04T13:51:35;3.27;;;2.00;;
6755;SDS011;3415;51.148;7.014;2022-11-04T13:54:21;5.97;;;1.80;;
6755;SDS011;3415;51.148;7.014;2022-11-04T13:57:01;8.43;;;1.70;;
6755;SDS011;3415;51.148;7.014;2022-11-04T13:59:30;4.90;;;1.60;;
6755;SDS011;3415;51.148;7.014;2022-11-04T14:08:17;3.37;;;1.60;;
6755;SDS011;3415;51.148;7.014;2022-11-04T14:10:56;5.60;;;1.83;;
6755;SDS011;3415;51.148;7.014;2022-11-04T14:13:43;2.10;;;1.23;;
6755;SDS011;3415;51.148;7.014;2022-11-04T14:16:35;2.53;;;1.60;;
6755;SDS011;3415;51.148;7.014;2022-11-04T14:25:17;4.10;;;1.53;;
6755;SDS011;3415;51.148;7.014;2022-11-04T14:28:16;4.83;;;1.90;;
6755;SDS011;3415;51.148;7.014;2022-11-04T14:30:51;4.77;;;1.90;;
6755;SDS011;3415;51.148;7.014;2022-11-04T14:33:20;4.30;;;2.60;;
6755;SDS011;3415;51.148;7.014;2022-11-04T14:36:12;6.43;;;2.87;;
6755;SDS011;3415;51.148;7.014;2022-11-04T14:38:59;4.10;;;2.30;;
6755;SDS011;3415;51.148;7.014;2022-11-04T14:41:31;4.53;;;1.90;;
6755;SDS011;3415;51.148;7.014;2022-11-04T14:44:18;3.43;;;2.00;;
6755;SDS011;3415;51.148;7.014;2022-11-04T14:46:51;7.20;;;2.20;;
6755;SDS011;3415;51.148;7.014;2022-11-04T14:49:31;8.70;;;2.17;;
6755;SDS011;3415;51.148;7.014;2022-11-04T14:52:03;7.70;;;2.43;;
6755;SDS011;3415;51.148;7.014;2022-11-04T14:54:31;4.30;;;1.83;;
6755;SDS011;3415;51.148;7.014;2022-11-04T14:57:06;6.37;;;2.53;;
6755;SDS011;3415;51.148;7.014;2022-11-04T14:59:39;4.03;;;3.07;;
6755;SDS011;3415;51.148;7.014;2022-11-04T15:02:10;6.50;;;3.97;;
6755;SDS011;3415;51.148;7.014;2022-11-04T15:04:44;5.50;;;3.30;;
6755;SDS011;3415;51.148;7.014;2022-11-04T15:07:21;9.13;;;3.27;;
6755;SDS011;3415;51.148;7.014;2022-11-04T15:09:50;6.30;;;3.33;;
6755;SDS011;3415;51.148;7.014;2022-11-04T15:12:18;11.60;;;5.30;;
6755;SDS011;3415;51.148;7.014;2022-11-04T15:18:02;7.47;;;3.53;;
6755;SDS011;3415;51.148;7.014;2022-11-04T15:20:32;8.47;;;4.60;;
6755;SDS011;3415;51.148;7.014;2022-11-04T15:23:02;9.70;;;4.87;;
6755;SDS011;3415;51.148;7.014;2022-11-04T15:25:29;6.83;;;3.60;;
6755;SDS011;3415;51.148;7.014;2022-11-04T15:27:56;2.53;;;1.80;;
6755;SDS011;3415;51.148;7.014;2022-11-04T15:30:24;8.30;;;2.00;;
6755;SDS011;3415;51.148;7.014;2022-11-04T15:32:58;6.20;;;2.10;;
6755;SDS011;3415;51.148;7.014;2022-11-04T15:35:26;5.77;;;2.40;;
6755;SDS011;3415;51.148;7.014;2022-11-04T15:37:54;5.97;;;2.47;;
6755;SDS011;3415;51.148;7.014;2022-11-04T15:40:23;3.30;;;1.90;;
6755;SDS011;3415;51.148;7.014;2022-11-04T15:42:51;4.10;;;2.20;;
6755;SDS011;3415;51.148;7.014;2022-11-04T15:45:25;3.87;;;1.73;;
6755;SDS011;3415;51.148;7.014;2022-11-04T15:53:45;3.00;;;2.13;;
6755;SDS011;3415;51.148;7.014;2022-11-04T15:56:15;4.17;;;2.40;;
6755;SDS011;3415;51.148;7.014;2022-11-04T15:58:44;5.27;;;2.60;;
6755;SDS011;3415;51.148;7.014;2022-11-04T16:01:11;7.60;;;2.50;;
6755;SDS011;3415;51.148;7.014;2022-11-04T16:03:41;6.87;;;3.10;;
6755;SDS011;3415;51.148;7.014;2022-11-04T16:06:15;5.93;;;2.37;;
6755;SDS011;3415;51.148;7.014;2022-11-04T16:08:42;8.77;;;2.43;;
6755;SDS011;3415;51.148;7.014;2022-11-04T16:11:24;9.60;;;2.80;;
6755;SDS011;3415;51.148;7.014;2022-11-04T16:13:51;5.03;;;2.60;;
6755;SDS011;3415;51.148;7.014;2022-11-04T16:16:22;6.50;;;3.10;;